Time;durP1;ratioP1;P1;durP2;ratioP2;P2;SDS_P1;SDS_P2;PMS_P1;PMS_P2;Temp;Humidity;BMP_temperature;BMP_pressure;BME280_temperature;BME280_humidity;BME280_pressure;Samples;Min_cycle;Max_cycle;Signal;HPM_P1;HPM_P2
2022/11/30 00:02:22;;;;;;;42.87;20.03;;;4.60;99.90;;;1.99;100.00;100751.94;10584872;27;20056;-84
2022/11/30 00:07:25;;;;;;;46.30;21.30;;;4.50;99.90;;;1.95;100.00;100753.06;10577379;27;20059;-84
2022/11/30 00:12:28;;;;;;;47.40;20.63;;;4.40;99.90;;;1.91;100.00;100768.13;10630912;27;20059;-83
2022/11/30 00:17:31;;;;;;;39.37;19.20;;;4.40;99.90;;;1.86;100.00;100767.63;10575612;27;20066;-83
2022/11/30 00:22:34;;;;;;;36.33;17.23;;;4.30;99.90;;;1.81;100.00;100757.41;10612528;27;20059;-84
2022/11/30 00:27:37;;;;;;;47.00;24.73;;;4.30;99.90;;;1.76;100.00;100761.25;10648511;27;20105;-84
2022/11/30 00:32:40;;;;;;;41.77;20.13;;;4.20;99.90;;;1.70;100.00;100756.41;10590024;27;20089;-84
2022/11/30 00:37:43;;;;;;;33.40;15.97;;;4.20;99.90;;;1.63;100.00;100749.88;10606675;27;20059;-84
2022/11/30 00:42:46;;;;;;;39.30;19.87;;;4.10;99.90;;;1.59;100.00;100757.09;10620188;27;20105;-84
2022/11/30 00:47:49;;;;;;;43.00;20.70;;;4.10;99.90;;;1.55;100.00;100740.72;10609414;27;20135;-84
2022/11/30 00:52:52;;;;;;;38.53;19.97;;;4.10;99.90;;;1.49;100.00;100756.81;10623410;27;20064;-84
2022/11/30 00:57:54;;;;;;;41.87;19.70;;;4.00;99.90;;;1.46;100.00;100750.94;10600446;27;20109;-83
2022/11/30 01:03:01;;;;;;;49.00;23.37;;;3.90;99.90;;;1.38;100.00;100753.19;10564317;27;20451;-84
2022/11/30 01:08:07;;;;;;;43.37;20.97;;;3.80;99.90;;;1.30;100.00;100759.75;10584453;27;20055;-83
2022/11/30 01:13:12;;;;;;;47.63;24.13;;;3.80;99.90;;;1.29;100.00;100760.69;10590488;27;20492;-84
2022/11/30 01:18:15;;;;;;;48.13;22.33;;;3.80;99.90;;;1.32;100.00;100750.03;10615126;27;20056;-83
2022/11/30 01:23:18;;;;;;;48.00;22.63;;;3.80;99.90;;;1.34;100.00;100745.53;10593548;27;20503;-84
2022/11/30 01:28:21;;;;;;;43.07;21.17;;;3.80;99.90;;;1.38;100.00;100750.56;10607258;27;20063;-84
2022/11/30 01:33:24;;;;;;;40.47;19.40;;;3.80;99.90;;;1.40;100.00;100743.47;10583279;27;20074;-84
2022/11/30 01:38:35;;;;;;;44.80;21.03;;;3.90;99.90;;;1.43;100.00;100751.13;10611027;27;20385;-83
2022/11/30 01:43:51;;;;;;;40.03;18.90;;;3.90;99.90;;;1.45;100.00;100747.50;10608125;27;20051;-83
2022/11/30 01:49:09;;;;;;;39.50;17.90;;;3.90;99.90;;;1.47;100.00;100742.16;10589513;27;20117;-83
2022/11/30 01:54:16;;;;;;;33.63;17.13;;;3.90;99.90;;;1.47;100.00;100742.16;10612991;27;20527;-84
2022/11/30 01:59:21;;;;;;;40.40;19.77;;;3.90;99.90;;;1.48;100.00;100749.06;10589341;27;20480;-84
2022/11/30 02:04:31;;;;;;;35.20;17.80;;;4.00;99.90;;;1.47;100.00;100748.22;10582048;27;20059;-84
2022/11/30 02:09:43;;;;;;;34.67;16.97;;;3.90;99.90;;;1.43;100.00;100738.03;10566562;27;20435;-84
2022/11/30 02:14:52;;;;;;;33.28;16.45;;;3.90;99.90;;;1.35;100.00;100738.50;10572076;27;20150;-84
2022/11/30 02:20:13;;;;;;;38.37;19.20;;;3.90;99.90;;;1.22;100.00;100740.22;10585477;27;20514;-83
2022/11/30 02:25:48;;;;;;;42.70;17.93;;;3.70;99.90;;;1.10;100.00;100744.44;10593785;27;20510;-84
2022/11/30 02:30:53;;;;;;;40.20;18.83;;;3.60;99.90;;;1.01;100.00;100747.59;10562133;27;20062;-83
2022/11/30 02:35:58;;;;;;;37.87;16.40;;;3.50;99.90;;;0.95;100.00;100740.13;10608896;27;20086;-83
2022/11/30 02:41:02;;;;;;;29.80;13.50;;;3.40;99.90;;;0.93;100.00;100739.38;10575185;27;20559;-83
2022/11/30 02:46:59;;;;;;;26.10;12.27;;;3.40;99.90;;;0.95;100.00;100734.88;10564947;27;20063;-83
2022/11/30 02:52:05;;;;;;;28.07;11.97;;;3.40;99.90;;;1.00;100.00;100738.06;10555997;27;20109;-83
2022/11/30 02:57:09;;;;;;;26.70;12.43;;;3.50;99.90;;;1.06;100.00;100724.59;10613700;27;20058;-83
2022/11/30 03:02:12;;;;;;;25.67;11.00;;;3.50;99.90;;;1.10;100.00;100715.63;10608614;27;20052;-83
2022/11/30 03:07:15;;;;;;;28.97;12.73;;;3.60;99.90;;;1.16;100.00;100707.41;10590792;27;20140;-83
2022/11/30 03:12:18;;;;;;;19.03;9.63;;;3.60;99.90;;;1.18;100.00;100721.22;10583348;27;20062;-83
2022/11/30 03:17:21;;;;;;;24.20;11.53;;;3.70;99.90;;;1.23;100.00;100715.72;10572042;27;20059;-83
2022/11/30 03:22:24;;;;;;;24.97;12.13;;;3.70;99.90;;;1.25;100.00;100717.28;10581481;27;20098;-83
2022/11/30 03:27:27;;;;;;;22.57;11.63;;;3.70;99.90;;;1.34;100.00;100719.34;10612201;27;20458;-83
2022/11/30 03:32:30;;;;;;;24.00;10.93;;;3.80;99.90;;;1.43;100.00;100724.94;10604014;27;20104;-83
2022/11/30 03:37:33;;;;;;;23.30;9.73;;;3.90;99.90;;;1.51;100.00;100727.94;10596256;27;20105;-83
2022/11/30 03:42:36;;;;;;;27.40;12.20;;;4.00;99.90;;;1.55;100.00;100725.00;10573282;27;20105;-83
2022/11/30 03:47:39;;;;;;;24.63;10.40;;;4.00;99.90;;;1.61;100.00;100729.84;10580655;27;20060;-83
2022/11/30 03:52:42;;;;;;;22.83;10.80;;;4.00;99.90;;;1.65;100.00;100730.50;10594208;27;20055;-84
2022/11/30 03:57:45;;;;;;;18.57;10.53;;;4.10;99.90;;;1.67;100.00;100728.63;10606853;27;20112;-84
2022/11/30 04:02:48;;;;;;;20.67;10.33;;;4.10;99.90;;;1.74;100.00;100742.16;10583740;27;20427;-84
2022/11/30 04:07:51;;;;;;;24.73;10.50;;;4.20;99.90;;;1.79;100.00;100727.81;10563071;27;20067;-84
2022/11/30 04:12:54;;;;;;;19.17;9.27;;;4.20;99.90;;;1.85;100.00;100734.44;10595439;27;20138;-84
2022/11/30 04:17:57;;;;;;;23.33;11.53;;;4.30;99.90;;;1.87;100.00;100728.19;10594120;27;20067;-84
2022/11/30 04:23:00;;;;;;;21.03;10.50;;;4.30;99.90;;;1.94;100.00;100727.78;10594801;27;20056;-84
2022/11/30 04:28:03;;;;;;;21.37;9.77;;;4.40;99.90;;;1.95;100.00;100729.47;10596259;27;20491;-84
2022/11/30 04:33:06;;;;;;;18.27;8.17;;;4.40;99.90;;;1.97;100.00;100719.72;10567540;27;20143;-84
2022/11/30 04:38:10;;;;;;;19.23;9.53;;;4.40;99.90;;;1.97;100.00;100731.03;10596918;27;20063;-84
2022/11/30 04:43:13;;;;;;;18.33;8.30;;;4.40;99.90;;;2.00;100.00;100737.88;10556830;27;20075;-84
2022/11/30 04:48:18;;;;;;;18.33;9.33;;;4.40;99.90;;;2.03;100.00;100742.91;10614034;27;20092;-83
2022/11/30 04:53:21;;;;;;;25.30;11.30;;;4.50;99.90;;;2.05;100.00;100738.44;10594140;27;20431;-83
2022/11/30 04:58:24;;;;;;;15.63;8.83;;;4.50;99.90;;;2.05;100.00;100738.44;10606930;27;20064;-83
2022/11/30 05:03:27;;;;;;;24.33;11.30;;;4.50;99.90;;;2.05;100.00;100735.81;10608628;27;20051;-83
2022/11/30 05:08:30;;;;;;;17.73;9.47;;;4.50;99.90;;;2.07;100.00;100741.78;10613700;27;20083;-83
2022/11/30 05:13:33;;;;;;;20.50;10.73;;;4.50;99.90;;;2.10;100.00;100736.34;10617581;27;20063;-83
2022/11/30 05:18:36;;;;;;;25.47;10.10;;;4.50;99.90;;;2.12;100.00;100737.91;10622556;27;20059;-83
2022/11/30 05:23:39;;;;;;;20.97;9.63;;;4.50;99.90;;;2.14;100.00;100732.56;10644356;27;20055;-83
2022/11/30 05:28:42;;;;;;;30.93;13.07;;;4.60;99.90;;;2.15;100.00;100736.84;10576893;27;20450;-83
2022/11/30 05:33:52;;;;;;;30.90;13.93;;;4.60;99.90;;;2.12;100.00;100730.06;10603308;27;20519;-83
2022/11/30 05:38:55;;;;;;;26.63;12.30;;;4.60;99.90;;;2.15;100.00;100736.84;10627071;27;20063;-83
2022/11/30 05:43:58;;;;;;;19.63;10.27;;;4.60;99.90;;;2.18;100.00;100731.44;10591076;27;20055;-83
2022/11/30 05:49:02;;;;;;;20.10;9.17;;;4.60;99.90;;;2.19;100.00;100730.47;10601490;27;20147;-83
2022/11/30 05:54:05;;;;;;;21.83;9.70;;;4.70;99.90;;;2.21;100.00;100743.47;10585149;27;20052;-83
2022/11/30 05:59:10;;;;;;;14.73;7.30;;;4.70;99.90;;;2.19;100.00;100751.47;10589471;27;20234;-83
2022/11/30 06:04:13;;;;;;;14.87;7.27;;;4.70;99.90;;;2.22;100.00;100750.41;10598926;27;20066;-83
2022/11/30 06:09:15;;;;;;;17.37;8.70;;;4.70;99.90;;;2.21;100.00;100753.97;10624829;27;20098;-83
2022/11/30 06:14:18;;;;;;;15.97;7.33;;;4.70;99.90;;;2.23;100.00;100752.13;10619973;27;20070;-90
2022/11/30 06:19:21;;;;;;;14.53;8.33;;;4.70;99.90;;;2.25;100.00;100751.06;10561410;27;20126;-83
2022/11/30 06:24:24;;;;;;;12.33;6.67;;;4.70;99.90;;;2.27;100.00;100754.41;10602096;27;20056;-83
2022/11/30 06:29:27;;;;;;;13.83;6.03;;;4.70;99.90;;;2.29;100.00;100759.56;10603668;27;20510;-83
2022/11/30 06:34:31;;;;;;;11.93;5.63;;;4.70;99.90;;;2.30;100.00;100764.72;10582773;27;20055;-83
2022/11/30 06:39:34;;;;;;;18.03;6.17;;;4.80;99.90;;;2.34;100.00;100771.44;10588302;27;20112;-83
2022/11/30 06:44:57;;;;;;;13.00;6.40;;;4.80;99.90;;;2.37;100.00;100771.22;10609528;27;20056;-83
2022/11/30 06:50:00;;;;;;;11.53;6.53;;;4.80;99.90;;;2.41;100.00;100775.34;10584798;27;20077;-83
2022/11/30 06:55:03;;;;;;;13.53;6.63;;;4.80;99.90;;;2.45;100.00;100778.56;10608488;27;20110;-85
2022/11/30 07:00:07;;;;;;;14.40;7.50;;;4.90;99.90;;;2.52;100.00;100776.38;10582692;27;20051;-87
2022/11/30 07:05:11;;;;;;;14.40;7.30;;;5.00;99.90;;;2.58;100.00;100779.47;10587547;27;20123;-86
2022/11/30 07:10:14;;;;;;;16.70;7.27;;;5.00;99.90;;;2.63;100.00;100777.34;10599607;27;20059;-87
2022/11/30 07:15:22;;;;;;;13.77;7.03;;;5.10;99.90;;;2.71;100.00;100783.91;10605120;27;20059;-90
2022/11/30 07:20:25;;;;;;;10.03;5.43;;;5.10;99.90;;;2.78;100.00;100785.16;10616601;27;20063;-84
2022/11/30 07:30:49;;;;;;;11.77;5.83;;;5.30;99.90;;;2.93;100.00;100790.19;10575566;27;20055;-91
2022/11/30 07:35:53;;;;;;;13.67;6.63;;;5.40;99.90;;;3.08;100.00;100790.94;10605682;27;20055;-85
2022/11/30 07:40:58;;;;;;;8.93;4.93;;;5.50;99.90;;;3.22;100.00;100780.31;10644252;27;20060;-84
2022/11/30 07:46:02;;;;;;;16.20;7.47;;;5.60;99.90;;;3.38;100.00;100763.50;10612902;27;20063;-85
2022/11/30 07:51:17;;;;;;;17.73;8.27;;;5.80;99.90;;;3.55;100.00;100776.28;10592950;27;20106;-83
2022/11/30 07:56:20;;;;;;;24.47;10.60;;;5.90;99.90;;;3.68;100.00;100774.47;10619279;27;20515;-85
2022/11/30 08:01:31;;;;;;;24.57;12.57;;;6.10;99.90;;;3.82;100.00;100778.72;10581597;27;20056;-82
2022/11/30 08:06:34;;;;;;;25.25;12.27;;;6.20;99.90;;;3.97;100.00;100772.38;10631137;27;20056;-82
2022/11/30 08:11:37;;;;;;;18.10;8.90;;;6.40;99.90;;;4.07;100.00;100771.69;10611383;27;20189;-82
2022/11/30 08:16:42;;;;;;;10.63;5.43;;;6.50;99.90;;;4.16;99.37;100781.53;10595421;27;20059;-82
2022/11/30 08:21:45;;;;;;;22.33;10.10;;;6.60;99.90;;;4.26;98.69;100775.50;10649063;27;20566;-82
2022/11/30 08:26:51;;;;;;;15.30;7.50;;;6.70;99.90;;;4.41;98.07;100784.03;10581361;27;20056;-82
2022/11/30 08:31:54;;;;;;;17.60;7.77;;;6.80;99.90;;;4.51;97.50;100777.13;10613270;27;20138;-82
2022/11/30 08:36:57;;;;;;;12.50;6.20;;;6.90;99.90;;;4.62;96.63;100772.84;10648353;27;20060;-82
2022/11/30 08:42:01;;;;;;;11.97;5.97;;;7.00;99.90;;;4.68;95.33;100773.25;10644513;27;20058;-82
2022/11/30 08:47:06;;;;;;;12.17;5.80;;;7.10;99.90;;;4.74;92.57;100759.63;10600730;27;20060;-82
2022/11/30 08:52:09;;;;;;;12.53;5.80;;;7.20;99.90;;;4.80;90.69;100760.94;10617904;27;20511;-82
2022/11/30 08:57:34;;;;;;;12.50;5.67;;;7.20;99.90;;;4.90;89.41;100750.53;10597841;27;20063;-82
2022/11/30 09:02:36;;;;;;;11.73;5.63;;;7.30;99.90;;;5.00;87.99;100752.34;10612973;27;20065;-82
2022/11/30 09:07:40;;;;;;;12.53;5.20;;;7.40;99.90;;;5.11;85.75;100748.88;10611746;27;20083;-82
2022/11/30 09:12:43;;;;;;;12.03;5.60;;;7.50;99.90;;;5.26;85.40;100744.19;10629661;27;20147;-82
2022/11/30 09:17:46;;;;;;;8.90;5.10;;;7.60;99.90;;;5.40;84.84;100733.44;10600026;27;20136;-82
2022/11/30 09:22:49;;;;;;;11.00;5.80;;;7.80;99.90;;;5.54;84.67;100748.13;10595052;27;20095;-82
2022/11/30 09:27:52;;;;;;;12.50;5.50;;;7.90;99.90;;;5.63;83.51;100742.13;10594827;27;20083;-82
2022/11/30 09:32:54;;;;;;;19.90;11.17;;;8.10;99.90;;;5.70;82.63;100747.72;10586057;27;20059;-82
2022/11/30 09:37:57;;;;;;;26.83;14.60;;;8.10;99.90;;;5.74;82.39;100741.25;10630864;27;20059;-82
2022/11/30 09:43:23;;;;;;;15.80;8.83;;;8.20;99.90;;;5.78;82.26;100743.53;10616148;27;20060;-82
2022/11/30 09:48:31;;;;;;;14.53;8.33;;;8.20;99.90;;;5.88;82.46;100743.63;10566164;27;20071;-82
2022/11/30 09:53:44;;;;;;;14.10;6.10;;;8.30;99.90;;;5.97;81.96;100740.25;10617189;27;20059;-81
2022/11/30 09:59:07;;;;;;;9.40;5.27;;;8.40;99.90;;;6.08;80.99;100748.16;10564751;27;20056;-82
2022/11/30 10:04:28;;;;;;;10.80;5.80;;;8.50;99.90;;;6.14;79.47;100745.00;10615601;27;20151;-83
2022/11/30 10:09:50;;;;;;;12.63;5.60;;;8.60;99.90;;;6.23;79.44;100747.84;10608153;27;20066;-83
2022/11/30 10:15:38;;;;;;;13.43;7.27;;;8.70;99.90;;;6.28;78.08;100740.38;10597058;27;20059;-82
2022/11/30 10:21:29;;;;;;;7.87;4.10;;;8.70;99.90;;;6.33;77.60;100744.31;10586043;27;20055;-82
2022/11/30 10:26:39;;;;;;;9.10;5.13;;;8.80;99.90;;;6.30;76.62;100739.31;10542371;27;20389;-82
2022/11/30 10:31:43;;;;;;;7.47;4.07;;;8.80;99.90;;;6.36;75.70;100737.97;10609616;27;20059;-82
2022/11/30 10:37:16;;;;;;;6.60;3.90;;;8.80;99.90;;;6.44;75.55;100736.34;10578258;27;20063;-82
2022/11/30 10:42:58;;;;;;;7.10;3.40;;;8.90;99.90;;;6.54;74.97;100740.88;10596304;27;20083;-82
2022/11/30 10:48:35;;;;;;;12.70;5.00;;;9.00;99.90;;;6.49;72.77;100724.56;10580583;27;20066;-82
2022/11/30 10:53:37;;;;;;;7.23;3.90;;;9.00;99.90;;;6.58;72.92;100711.41;10562486;27;20105;-82
2022/11/30 10:59:02;;;;;;;8.27;4.00;;;9.00;99.90;;;6.68;72.19;100707.03;10591485;27;20089;-82
2022/11/30 11:04:16;;;;;;;7.17;3.60;;;9.10;99.90;;;6.74;71.03;100708.31;10596982;27;20473;-82
2022/11/30 11:09:45;;;;;;;8.40;3.90;;;9.20;99.90;;;6.78;71.13;100711.53;10603711;27;20415;-82
2022/11/30 11:15:16;;;;;;;7.77;3.70;;;9.20;99.90;;;6.85;71.71;100700.31;10617866;27;20092;-82
2022/11/30 11:20:41;;;;;;;8.00;3.83;;;9.20;99.90;;;6.95;70.54;100695.06;10561184;27;20060;-82
2022/11/30 11:25:52;;;;;;;8.17;3.73;;;9.40;99.90;;;6.96;69.73;100683.56;10569485;27;20060;-82
2022/11/30 11:30:57;;;;;;;6.80;3.30;;;9.40;99.90;;;6.97;68.23;100688.69;10616907;27;20060;-83
2022/11/30 11:36:14;;;;;;;6.50;3.30;;;9.40;99.90;;;7.09;68.75;100683.31;10609002;27;20113;-82
2022/11/30 11:41:32;;;;;;;8.20;3.30;;;9.50;99.90;;;7.15;67.71;100691.56;10632263;27;20560;-82
2022/11/30 11:47:05;;;;;;;5.10;2.77;;;9.60;99.90;;;7.17;66.28;100692.25;10610409;27;20055;-82
2022/11/30 11:52:11;;;;;;;8.00;3.67;;;9.60;99.90;;;7.10;66.33;100685.81;10592593;27;20063;-82
2022/11/30 11:57:20;;;;;;;7.33;3.80;;;9.60;99.90;;;7.00;66.16;100682.31;10611436;27;20114;-88
2022/11/30 12:02:44;;;;;;;6.87;2.80;;;9.50;99.90;;;7.03;67.24;100697.06;10577190;27;20465;-85
2022/11/30 12:08:05;;;;;;;7.33;3.73;;;9.50;99.90;;;6.97;65.95;100698.44;10612807;27;20056;-84
2022/11/30 12:13:17;;;;;;;8.68;2.60;;;9.40;99.50;;;6.91;66.07;100712.19;10600411;27;20060;-85
2022/11/30 12:18:36;;;;;;;6.00;2.77;;;9.40;99.10;;;6.90;65.92;100695.50;10594245;27;20588;-86
2022/11/30 12:23:51;;;;;;;12.80;4.67;;;9.40;99.20;;;6.94;65.02;100701.31;10559705;27;20533;-85
2022/11/30 12:29:04;;;;;;;8.10;3.00;;;9.40;98.70;;;6.95;64.42;100703.81;10620898;27;20058;-87
2022/11/30 12:34:31;;;;;;;7.70;2.90;;;9.40;98.20;;;6.96;64.50;100692.31;10612976;27;20061;-86
2022/11/30 12:39:58;;;;;;;11.27;4.30;;;9.40;98.10;;;6.92;64.57;100682.13;10598269;27;20067;-86
2022/11/30 12:45:18;;;;;;;5.67;2.43;;;9.40;97.70;;;6.82;63.97;100686.53;10648568;27;20062;-86
2022/11/30 12:50:32;;;;;;;6.47;3.50;;;9.30;97.00;;;6.77;64.24;100688.72;10575936;27;20542;-86
2022/11/30 12:56:05;;;;;;;7.03;3.27;;;9.20;97.20;;;6.74;65.23;100679.28;10642053;27;20134;-86
2022/11/30 13:01:47;;;;;;;5.97;3.27;;;9.20;97.20;;;6.74;65.42;100675.78;10604781;27;20056;-86
2022/11/30 13:07:01;;;;;;;7.10;3.00;;;9.20;96.60;;;6.66;65.39;100676.47;10607401;27;20055;-87
2022/11/30 13:12:11;;;;;;;9.60;4.07;;;9.10;97.20;;;6.61;65.53;100671.56;10570740;27;20056;-87
2022/11/30 13:17:18;;;;;;;14.30;5.80;;;9.10;97.30;;;6.66;65.77;100679.09;10584049;27;20056;-87
2022/11/30 13:22:42;;;;;;;10.07;4.27;;;9.10;97.20;;;6.68;65.83;100683.28;10572821;27;20177;-87
2022/11/30 13:28:23;;;;;;;222.60;96.13;;;9.10;97.50;;;6.67;65.81;100673.69;10621734;27;20059;-87
2022/11/30 13:33:32;;;;;;;13.40;6.93;;;9.10;97.20;;;6.59;65.70;100664.72;10608112;27;20543;-87
2022/11/30 13:38:35;;;;;;;76.47;46.40;;;9.10;97.10;;;6.50;66.69;100665.53;10613846;27;20457;-87
2022/11/30 13:43:46;;;;;;;11.57;7.13;;;9.00;97.20;;;6.43;66.66;100678.41;10609755;27;20108;-87
2022/11/30 13:49:16;;;;;;;11.30;6.50;;;8.90;97.20;;;6.35;67.14;100675.56;10584294;27;20059;-91
2022/11/30 13:54:49;;;;;;;15.50;7.80;;;8.80;97.30;;;6.30;67.95;100677.78;10556600;27;20090;-86
2022/11/30 13:59:56;;;;;;;15.90;8.73;;;8.70;97.50;;;6.23;67.83;100671.31;10576635;27;20419;-87
2022/11/30 14:05:15;;;;;;;15.37;8.63;;;8.70;97.70;;;6.14;68.05;100673.75;10607998;27;20060;-87
2022/11/30 14:10:32;;;;;;;17.17;8.80;;;8.60;97.80;;;6.07;68.14;100675.25;10573531;27;20129;-87
2022/11/30 14:15:39;;;;;;;16.47;8.43;;;8.50;97.70;;;6.00;67.99;100675.84;10609784;27;20070;-87
2022/11/30 14:21:12;;;;;;;11.53;6.07;;;8.40;97.70;;;5.93;69.24;100683.44;10638665;27;20058;-87
2022/11/30 14:26:26;;;;;;;8.37;4.47;;;8.40;98.20;;;5.85;70.40;100677.94;10637598;27;20055;-87
2022/11/30 14:32:22;;;;;;;28.87;13.50;;;8.30;98.30;;;5.80;71.45;100677.47;10593093;27;20060;-87
2022/11/30 14:37:36;;;;;;;16.13;8.40;;;8.30;98.50;;;5.71;72.08;100667.69;10602421;27;20071;-87
2022/11/30 14:42:48;;;;;;;20.13;9.10;;;8.20;98.70;;;5.60;72.83;100666.75;10571123;27;20559;-87
2022/11/30 14:48:03;;;;;;;15.17;8.50;;;8.10;98.80;;;5.53;73.63;100673.47;10587591;27;20059;-87
2022/11/30 14:53:31;;;;;;;41.17;17.87;;;8.00;99.00;;;5.43;74.26;100666.44;10551144;28;20515;-86
2022/11/30 14:58:57;;;;;;;31.37;13.80;;;7.90;99.30;;;5.32;74.97;100662.03;10597380;27;20153;-87
2022/11/30 15:04:16;;;;;;;23.77;10.03;;;7.80;99.50;;;5.23;75.73;100657.50;10594598;27;20060;-87
2022/11/30 15:09:24;;;;;;;21.53;8.33;;;7.70;99.70;;;5.12;76.43;100655.72;10576256;27;20062;-87
2022/11/30 15:14:27;;;;;;;26.17;10.33;;;7.60;99.90;;;5.04;76.94;100660.75;10574080;27;20059;-89
2022/11/30 15:19:33;;;;;;;25.23;11.07;;;7.50;99.90;;;4.98;77.47;100666.50;10587045;27;20067;-88
2022/11/30 15:24:36;;;;;;;15.40;7.00;;;7.50;99.90;;;4.87;78.20;100653.34;10581829;27;20051;-87
2022/11/30 15:29:48;;;;;;;26.57;9.43;;;7.30;99.90;;;4.80;78.79;100653.81;10599205;27;20128;-87
2022/11/30 15:35:00;;;;;;;35.37;12.50;;;7.20;99.90;;;4.73;79.31;100654.41;10591396;27;20059;-87
2022/11/30 15:40:07;;;;;;;36.40;14.00;;;7.20;99.90;;;4.63;79.75;100650.81;10578873;27;20051;-85
2022/11/30 15:45:34;;;;;;;37.43;14.17;;;7.10;99.90;;;4.57;79.97;100665.28;10614832;27;20064;-85
2022/11/30 15:50:39;;;;;;;74.53;24.00;;;7.00;99.90;;;4.47;80.67;100654.63;10580067;27;20052;-85
2022/11/30 15:55:49;;;;;;;104.77;36.67;;;7.00;99.90;;;4.40;80.73;100658.69;10580396;27;20055;-85
2022/11/30 16:01:08;;;;;;;105.07;38.93;;;6.90;99.90;;;4.32;81.28;100650.53;10587095;28;20095;-85
2022/11/30 16:06:18;;;;;;;111.33;42.37;;;6.80;99.90;;;4.26;81.46;100662.38;10598243;27;20064;-85
2022/11/30 16:11:21;;;;;;;55.77;22.17;;;6.70;99.90;;;4.17;81.93;100662.22;10591501;27;20414;-85
2022/11/30 16:16:31;;;;;;;45.63;17.70;;;6.70;99.90;;;4.13;82.03;100652.88;10604540;27;20066;-85
2022/11/30 16:21:34;;;;;;;47.97;19.30;;;6.60;99.90;;;4.07;81.98;100651.53;10584332;27;20473;-86
2022/11/30 16:26:37;;;;;;;55.03;21.80;;;6.60;99.90;;;4.03;82.41;100648.31;10614200;27;20063;-85
2022/11/30 16:31:55;;;;;;;44.30;20.03;;;6.50;99.90;;;3.97;82.48;100648.78;10605994;27;20059;-85
2022/11/30 16:36:58;;;;;;;35.73;14.53;;;6.50;99.90;;;3.92;82.64;100648.28;10596306;27;20059;-86
2022/11/30 16:42:01;;;;;;;40.17;15.60;;;6.40;99.90;;;3.89;82.83;100660.78;10587382;27;20059;-85
2022/11/30 16:47:04;;;;;;;29.60;11.40;;;6.40;99.90;;;3.86;83.14;100647.88;10598622;27;20060;-85
2022/11/30 16:52:14;;;;;;;16.80;8.53;;;6.40;99.90;;;3.85;83.08;100654.09;10589713;27;20055;-85
2022/11/30 16:57:17;;;;;;;36.30;13.60;;;6.30;99.90;;;3.81;83.44;100655.28;10571055;27;20130;-85
2022/11/30 17:02:22;;;;;;;25.47;10.20;;;6.30;99.90;;;3.78;83.65;100653.72;10594924;27;20060;-84
2022/11/30 17:07:25;;;;;;;27.37;12.90;;;6.30;99.90;;;3.69;83.62;100647.34;10595052;27;20059;-84
2022/11/30 17:12:28;;;;;;;46.97;18.73;;;6.20;99.90;;;3.65;83.99;100651.13;10636039;27;20062;-84
2022/11/30 17:17:31;;;;;;;55.37;22.47;;;6.20;99.90;;;3.62;84.30;100668.94;10594803;27;20055;-83
2022/11/30 17:22:36;;;;;;;74.93;31.13;;;6.10;99.90;;;3.57;84.66;100673.69;10581989;27;20056;-85
2022/11/30 17:27:39;;;;;;;43.33;19.87;;;6.00;99.90;;;3.51;85.01;100658.34;10600455;27;20055;-87
2022/11/30 17:32:42;;;;;;;45.47;19.97;;;6.00;99.90;;;3.47;85.52;100669.06;10595719;27;20047;-85
2022/11/30 17:37:45;;;;;;;41.40;19.77;;;5.90;99.90;;;3.42;85.83;100673.84;10598948;27;20056;-85
2022/11/30 17:42:48;;;;;;;38.13;18.27;;;5.90;99.90;;;3.36;85.94;100674.28;10629185;27;20056;-86
2022/11/30 17:47:52;;;;;;;32.97;16.73;;;5.80;99.90;;;3.29;86.32;100675.66;10611517;27;20066;-85
2022/11/30 17:52:55;;;;;;;28.63;13.50;;;5.80;99.90;;;3.22;86.63;100674.41;10575400;27;20119;-86
2022/11/30 17:57:58;;;;;;;40.60;15.33;;;5.70;99.90;;;3.17;86.87;100684.41;10536520;27;20503;-87
2022/11/30 18:03:02;;;;;;;31.33;14.17;;;5.60;99.90;;;3.12;87.08;100683.88;10595065;27;20060;-88
2022/11/30 18:08:06;;;;;;;37.23;16.30;;;5.60;99.90;;;3.07;87.25;100686.03;10605038;27;20064;-88
2022/11/30 18:13:09;;;;;;;39.30;15.63;;;5.60;99.90;;;3.03;87.85;100690.63;10576066;27;20058;-86
2022/11/30 18:18:12;;;;;;;36.33;16.37;;;5.50;99.90;;;3.04;87.99;100688.84;10591848;27;20064;-81
2022/11/30 18:23:15;;;;;;;42.60;16.90;;;5.50;99.90;;;3.03;88.15;100695.06;10573255;27;20063;-81
2022/11/30 18:28:17;;;;;;;23.40;10.07;;;5.50;99.90;;;3.02;88.39;100693.38;10594099;27;20526;-81
2022/11/30 18:33:20;;;;;;;16.90;7.20;;;5.50;99.90;;;2.98;88.70;100684.88;10551131;28;20064;-82
2022/11/30 18:38:24;;;;;;;32.63;11.37;;;5.50;99.90;;;2.99;88.92;100693.56;10580738;27;20059;-82
2022/11/30 18:43:29;;;;;;;27.67;12.10;;;5.40;99.90;;;2.97;89.35;100695.47;10592407;27;20094;-82
2022/11/30 18:48:32;;;;;;;34.77;13.53;;;5.40;99.90;;;2.94;89.31;100696.53;10583005;27;20150;-82
2022/11/30 18:53:35;;;;;;;27.80;13.30;;;5.40;99.90;;;2.89;89.44;100699.47;10591109;27;20063;-81
2022/11/30 18:58:39;;;;;;;24.13;11.67;;;5.40;99.90;;;2.82;89.25;100692.97;10590332;27;20056;-82
2022/11/30 19:03:47;;;;;;;27.87;13.50;;;5.30;99.90;;;2.73;89.28;100693.59;10608819;27;20055;-81
2022/11/30 19:08:50;;;;;;;26.10;11.97;;;5.20;99.90;;;2.65;89.48;100690.69;10581026;28;20060;-82
2022/11/30 19:13:56;;;;;;;21.07;10.63;;;5.10;99.90;;;2.55;89.67;100698.31;10624334;27;20059;-82
2022/11/30 19:19:06;;;;;;;22.20;11.27;;;5.00;99.90;;;2.50;89.90;100696.97;10606772;27;20059;-81
2022/11/30 19:24:09;;;;;;;18.63;9.30;;;5.00;99.90;;;2.44;89.92;100703.47;10600701;27;20106;-81
2022/11/30 19:29:12;;;;;;;21.80;10.17;;;4.90;99.90;;;2.40;90.49;100717.75;10604042;27;20062;-81
2022/11/30 19:34:15;;;;;;;18.63;9.53;;;4.90;99.90;;;2.35;90.72;100714.59;10579598;27;20078;-81
2022/11/30 19:39:18;;;;;;;15.10;8.17;;;4.80;99.90;;;2.31;90.92;100705.22;10590445;27;20060;-81
2022/11/30 19:44:21;;;;;;;18.53;8.73;;;4.80;99.90;;;2.30;91.33;100707.00;10569081;27;20175;-82
2022/11/30 19:49:24;;;;;;;39.63;12.83;;;4.80;99.90;;;2.31;91.41;100698.19;10619463;27;20055;-81
2022/11/30 19:54:27;;;;;;;25.70;9.17;;;4.80;99.90;;;2.40;91.78;100710.72;10598278;27;20063;-81
2022/11/30 19:59:30;;;;;;;30.03;10.23;;;4.90;99.90;;;2.44;91.95;100708.69;10563937;28;20444;-81
2022/11/30 20:04:33;;;;;;;27.73;9.97;;;4.90;99.90;;;2.49;92.02;100721.50;10575372;27;20067;-81
2022/11/30 20:09:36;;;;;;;24.43;10.07;;;5.00;99.90;;;2.53;92.40;100720.38;10575813;28;20456;-81
2022/11/30 20:14:39;;;;;;;29.17;9.33;;;5.00;99.90;;;2.58;92.48;100715.63;10530991;28;20064;-81
2022/11/30 20:19:42;;;;;;;16.77;7.03;;;5.00;99.90;;;2.58;92.62;100720.88;10593940;27;20054;-81
2022/11/30 20:24:45;;;;;;;15.27;7.27;;;5.00;99.90;;;2.57;92.67;100725.28;10585028;27;20082;-81
2022/11/30 20:29:50;;;;;;;14.00;6.70;;;5.00;99.90;;;2.56;92.77;100720.16;10585674;28;20056;-81
2022/11/30 20:34:53;;;;;;;11.10;5.17;;;5.00;99.90;;;2.56;92.79;100717.53;10568384;28;20063;-81
2022/11/30 20:39:56;;;;;;;8.67;4.70;;;5.00;99.90;;;2.56;93.14;100717.53;10549085;28;20528;-81
2022/11/30 20:44:58;;;;;;;13.63;6.23;;;5.00;99.90;;;2.54;93.23;100725.50;10549380;28;20061;-81
2022/11/30 20:50:05;;;;;;;14.43;6.87;;;5.00;99.90;;;2.48;93.02;100711.97;10541662;28;20056;-81
2022/11/30 20:55:08;;;;;;;14.13;6.77;;;4.90;99.90;;;2.39;93.19;100710.78;10583638;27;20064;-81
2022/11/30 21:00:12;;;;;;;14.50;7.13;;;4.90;99.90;;;2.32;93.40;100718.22;10583522;27;20562;-83
2022/11/30 21:05:19;;;;;;;19.73;8.87;;;4.80;99.90;;;2.27;93.43;100722.94;10586757;27;20055;-82
2022/11/30 21:10:22;;;;;;;35.30;11.27;;;4.70;99.90;;;2.22;93.69;100729.44;10629392;27;20408;-82
2022/11/30 21:15:25;;;;;;;25.07;10.80;;;4.70;99.90;;;2.16;93.75;100714.97;10596711;27;20071;-83
2022/11/30 21:20:28;;;;;;;71.80;18.43;;;4.70;99.90;;;2.12;94.02;100722.19;10627742;27;20061;-83